TAF and METAR

Decoding for American and Canadian METARs and TAFs is not fully implemented.

Could not understand the following METAR

KHRT 290256Z 29005KT 10SM FEW012 BKN045 25/20 A2987 RMK SLP116 53018

TAF for Hurlburt Field

TAF KHRT 290200Z 2902/3008 23009KT 9999 SCT010 BKN030 QNH2980INS TEMPO 2902/2904 21010G15KT 8000 -SHRA BKN010 BKN020 BECMG 2904/2905 32010G15KT 9999 SCT012 BKN035 QNH2984INS BECMG 2910/2911 31012KT 9999 FEW025 BKN040 QNH2982INS BECMG 2917/2918 34012G18KT 9999 SCT040 QNH2987INS BECMG 2921/2922 33012KT 9999 FEW045 SCT200 QNH2986INS TX27/2902Z TN18/2911Z
Report created 29. sep 04:00

between 29. sep 04:00 - 30. sep 10:00

wind 9 knots from SW (230°) visibility > 10km scattered clouds (~50% cover) at 1000 feet broken clouds (~75% cover) at 3000 feet